createdAt,value
2018-07-09T00:00:43.789Z,0
2018-07-09T00:01:52.645Z,0
2018-07-09T00:03:01.509Z,0
2018-07-09T00:04:10.365Z,0
2018-07-09T00:05:19.249Z,0
2018-07-09T00:06:28.106Z,0
2018-07-09T00:07:36.966Z,0
2018-07-09T00:08:45.822Z,0
2018-07-09T00:09:54.971Z,0
2018-07-09T00:11:03.834Z,0
2018-07-09T00:12:12.693Z,0
2018-07-09T00:13:21.830Z,0
2018-07-09T00:14:30.690Z,0
2018-07-09T00:15:39.547Z,0
2018-07-09T00:16:48.687Z,0
2018-07-09T00:17:57.647Z,0
2018-07-09T00:19:06.507Z,0
2018-07-09T00:20:15.644Z,0
2018-07-09T00:21:24.502Z,0
2018-07-09T00:22:33.364Z,0
2018-07-09T00:23:42.221Z,0
2018-07-09T00:24:51.082Z,0
2018-07-09T00:25:59.941Z,0
2018-07-09T00:27:09.075Z,0
2018-07-09T00:28:18.218Z,0
2018-07-09T00:29:27.432Z,0
2018-07-09T00:30:36.291Z,0
2018-07-09T00:31:45.153Z,0
2018-07-09T00:32:54.013Z,0
2018-07-09T00:34:03.158Z,0
2018-07-09T00:35:12.118Z,0
2018-07-09T00:36:21.254Z,0
2018-07-09T00:37:30.113Z,0
2018-07-09T00:38:38.977Z,0
2018-07-09T00:39:47.838Z,0
2018-07-09T00:40:56.972Z,0
2018-07-09T00:42:05.832Z,0
2018-07-09T00:43:14.971Z,0
2018-07-09T00:44:24.108Z,0
2018-07-09T00:45:32.969Z,0
2018-07-09T00:46:41.934Z,0
2018-07-09T00:47:51.068Z,0
2018-07-09T00:49:00.208Z,0
2018-07-09T00:50:09.358Z,0
2018-07-09T00:51:18.218Z,0
2018-07-09T00:52:27.078Z,0
2018-07-09T00:53:35.989Z,0
2018-07-09T00:54:44.849Z,0
2018-07-09T00:55:53.915Z,0
2018-07-09T00:57:03.050Z,0
2018-07-09T00:58:12.336Z,0
2018-07-09T00:59:21.193Z,0
2018-07-09T01:00:30.336Z,0
2018-07-09T01:01:39.194Z,0
2018-07-09T01:02:48.329Z,0
2018-07-09T01:03:57.540Z,0
2018-07-09T01:05:06.677Z,0
2018-07-09T01:06:15.540Z,0
2018-07-09T01:07:24.401Z,0
2018-07-09T01:08:33.261Z,0
2018-07-09T01:09:42.396Z,0
2018-07-09T01:10:51.255Z,0
2018-07-09T01:12:00.115Z,0
2018-07-09T01:13:08.974Z,0
2018-07-09T01:14:18.112Z,0
2018-07-09T01:15:26.972Z,0
2018-07-09T01:16:36.108Z,0
2018-07-09T01:17:44.968Z,0
2018-07-09T01:18:53.826Z,0
2018-07-09T01:20:02.688Z,0
2018-07-09T01:21:12.450Z,0
2018-07-09T01:22:21.310Z,0
2018-07-09T01:23:30.725Z,0
2018-07-09T01:24:39.584Z,0
2018-07-09T01:25:48.451Z,0
2018-07-09T01:26:57.461Z,0
2018-07-09T01:28:06.327Z,0
2018-07-09T01:29:15.181Z,0
2018-07-09T01:30:24.325Z,0
2018-07-09T01:31:33.461Z,0
2018-07-09T01:32:42.598Z,0
2018-07-09T01:33:51.737Z,0
2018-07-09T01:35:00.598Z,0
2018-07-09T01:36:09.735Z,0
2018-07-09T01:37:18.873Z,0
2018-07-09T01:38:27.885Z,0
2018-07-09T01:39:36.743Z,0
2018-07-09T01:40:45.880Z,0
2018-07-09T01:41:54.741Z,0
2018-07-09T01:43:03.605Z,0
2018-07-09T01:44:12.463Z,0
2018-07-09T01:45:21.323Z,0
2018-07-09T01:46:30.457Z,0
2018-07-09T01:47:39.592Z,0
2018-07-09T01:48:48.450Z,0
2018-07-09T01:49:57.581Z,0
2018-07-09T01:51:06.441Z,0
2018-07-09T01:52:15.300Z,0
2018-07-09T01:53:24.435Z,0
2018-07-09T01:54:33.295Z,0
2018-07-09T01:55:42.158Z,0
2018-07-09T01:56:51.009Z,0
2018-07-09T01:58:00.147Z,0
2018-07-09T01:59:09.280Z,0
2018-07-09T02:00:18.146Z,0
2018-07-09T02:01:27.153Z,0
2018-07-09T02:02:36.017Z,0
2018-07-09T02:03:44.877Z,0
2018-07-09T02:04:53.737Z,0
2018-07-09T02:06:02.873Z,0
2018-07-09T02:07:11.887Z,0
2018-07-09T02:08:20.749Z,0
2018-07-09T02:09:29.885Z,0
2018-07-09T02:10:38.741Z,0
2018-07-09T02:11:48.150Z,0
2018-07-09T02:12:57.110Z,0
2018-07-09T02:14:05.969Z,0
2018-07-09T02:15:14.828Z,0
2018-07-09T02:16:23.689Z,0
2018-07-09T02:17:32.549Z,0
2018-07-09T02:18:41.762Z,0
2018-07-09T02:19:50.621Z,0
2018-07-09T02:20:59.477Z,0
2018-07-09T02:22:08.612Z,0
2018-07-09T02:23:17.470Z,0
2018-07-09T02:24:26.330Z,0
2018-07-09T02:25:35.475Z,0
2018-07-09T02:26:44.617Z,0
2018-07-09T02:27:53.756Z,0
2018-07-09T02:29:02.887Z,0
2018-07-09T02:30:11.749Z,0
2018-07-09T02:31:20.611Z,0
2018-07-09T02:32:29.474Z,0
2018-07-09T02:33:38.894Z,0
2018-07-09T02:34:47.756Z,0
2018-07-09T02:35:56.618Z,0
2018-07-09T02:37:06.035Z,0
2018-07-09T02:38:15.169Z,0
2018-07-09T02:39:24.873Z,0
2018-07-09T02:40:33.732Z,0
2018-07-09T02:41:43.023Z,0
2018-07-09T02:42:51.891Z,0
2018-07-09T02:44:01.028Z,0
2018-07-09T02:45:10.442Z,0
2018-07-09T02:46:20.138Z,0
2018-07-09T02:47:29.148Z,0
2018-07-09T02:48:38.011Z,0
2018-07-09T02:49:47.429Z,0
2018-07-09T02:50:56.863Z,0
2018-07-09T02:52:06.283Z,0
2018-07-09T02:53:15.492Z,0
2018-07-09T02:54:24.643Z,0
2018-07-09T02:55:33.495Z,0
2018-07-09T02:56:42.641Z,0
2018-07-09T02:57:51.784Z,0
2018-07-09T02:59:01.354Z,0
2018-07-09T03:00:10.227Z,0
2018-07-09T03:01:19.589Z,0
2018-07-09T03:02:28.449Z,0
2018-07-09T03:03:37.605Z,5
2018-07-09T03:04:46.457Z,5
2018-07-09T03:05:55.594Z,5
2018-07-09T03:07:04.454Z,5
2018-07-09T03:08:13.312Z,5
2018-07-09T03:09:22.172Z,5
2018-07-09T03:10:31.388Z,5
2018-07-09T03:11:40.247Z,5
2018-07-09T03:12:49.393Z,5
2018-07-09T03:13:58.252Z,10
2018-07-09T03:15:07.114Z,10
2018-07-09T03:16:16.401Z,10
2018-07-09T03:17:25.547Z,10
2018-07-09T03:18:34.407Z,10
2018-07-09T03:19:43.264Z,10
2018-07-09T03:20:52.129Z,15
2018-07-09T03:22:01.985Z,15
2018-07-09T03:23:11.409Z,15
2018-07-09T03:24:20.261Z,15
2018-07-09T03:25:29.126Z,15
2018-07-09T03:26:38.260Z,20
2018-07-09T03:27:47.122Z,20
2018-07-09T03:28:56.256Z,20
2018-07-09T03:30:05.673Z,20
2018-07-09T03:31:14.541Z,20
2018-07-09T03:32:23.675Z,25
2018-07-09T03:33:32.533Z,25
2018-07-09T03:34:41.391Z,25
2018-07-09T03:35:50.254Z,25
2018-07-09T03:36:59.117Z,30
2018-07-09T03:38:08.253Z,30
2018-07-09T03:39:17.264Z,30
2018-07-09T03:40:26.120Z,35
2018-07-09T03:41:34.977Z,35
2018-07-09T03:42:43.837Z,35
2018-07-09T03:43:52.698Z,35
2018-07-09T03:45:01.834Z,40
2018-07-09T03:46:10.696Z,40
2018-07-09T03:47:19.553Z,45
2018-07-09T03:48:28.421Z,50
2018-07-09T03:49:37.280Z,50
2018-07-09T03:50:46.568Z,50
2018-07-09T03:51:55.428Z,55
2018-07-09T03:53:04.293Z,55
2018-07-09T03:54:13.152Z,55
2018-07-09T03:55:22.012Z,55
2018-07-09T03:56:30.868Z,60
2018-07-09T03:57:40.291Z,60
2018-07-09T03:58:49.148Z,60
2018-07-09T03:59:58.009Z,65
2018-07-09T04:01:06.880Z,65
2018-07-09T04:02:15.939Z,65
2018-07-09T04:03:25.027Z,70
2018-07-09T04:04:34.454Z,70
2018-07-09T04:05:43.588Z,70
2018-07-09T04:06:52.449Z,70
2018-07-09T04:08:01.459Z,75
2018-07-09T04:09:10.320Z,75
2018-07-09T04:10:19.188Z,75
2018-07-09T04:11:28.047Z,70
2018-07-09T04:12:37.177Z,80
2018-07-09T04:13:46.387Z,75
2018-07-09T04:14:55.523Z,75
2018-07-09T04:16:05.211Z,75
2018-07-09T04:17:14.069Z,80
2018-07-09T04:18:22.929Z,85
2018-07-09T04:19:32.140Z,95
2018-07-09T04:20:41.278Z,100
2018-07-09T04:21:50.417Z,90
2018-07-09T04:22:59.554Z,90
2018-07-09T04:24:08.415Z,90
2018-07-09T04:25:17.424Z,90
2018-07-09T04:26:26.284Z,95
2018-07-09T04:27:35.144Z,95
2018-07-09T04:28:44.006Z,95
2018-07-09T04:29:53.417Z,95
2018-07-09T04:31:02.275Z,95
2018-07-09T04:32:11.135Z,105
2018-07-09T04:33:20.281Z,115
2018-07-09T04:34:29.141Z,120
2018-07-09T04:35:38.005Z,120
2018-07-09T04:36:46.963Z,130
2018-07-09T04:37:55.906Z,140
2018-07-09T04:39:04.685Z,125
2018-07-09T04:40:13.822Z,105
2018-07-09T04:41:22.683Z,110
2018-07-09T04:42:31.893Z,115
2018-07-09T04:43:40.761Z,115
2018-07-09T04:44:49.624Z,125
2018-07-09T04:45:58.485Z,135
2018-07-09T04:47:07.621Z,120
2018-07-09T04:48:16.632Z,115
2018-07-09T04:49:25.490Z,115
2018-07-09T04:50:34.350Z,115
2018-07-09T04:51:43.209Z,125
2018-07-09T04:52:52.068Z,125
2018-07-09T04:54:01.080Z,125
2018-07-09T04:55:09.944Z,125
2018-07-09T04:56:18.810Z,135
2018-07-09T04:57:27.944Z,140
2018-07-09T04:58:36.806Z,135
2018-07-09T04:59:46.017Z,145
2018-07-09T05:00:54.874Z,150
2018-07-09T05:02:03.739Z,155
2018-07-09T05:03:12.609Z,150
2018-07-09T05:04:21.758Z,145
2018-07-09T05:05:30.910Z,140
2018-07-09T05:06:40.041Z,150
2018-07-09T05:07:49.179Z,140
2018-07-09T05:08:58.043Z,145
2018-07-09T05:10:06.905Z,150
2018-07-09T05:11:16.118Z,150
2018-07-09T05:12:24.978Z,150
2018-07-09T05:13:33.841Z,155
2018-07-09T05:14:42.981Z,170
2018-07-09T05:15:51.843Z,175
2018-07-09T05:17:00.703Z,180
2018-07-09T05:18:09.564Z,150
2018-07-09T05:19:18.425Z,140
2018-07-09T05:20:27.288Z,125
2018-07-09T05:21:36.424Z,125
2018-07-09T05:22:45.386Z,135
2018-07-09T05:23:54.245Z,155
2018-07-09T05:25:03.106Z,175
2018-07-09T05:26:11.965Z,190
2018-07-09T05:27:20.827Z,200
2018-07-09T05:28:29.784Z,210
2018-07-09T05:29:38.647Z,220
2018-07-09T05:30:47.510Z,220
2018-07-09T05:31:56.369Z,225
2018-07-09T05:33:05.231Z,225
2018-07-09T05:34:14.445Z,215
2018-07-09T05:35:23.312Z,195
2018-07-09T05:36:32.446Z,190
2018-07-09T05:37:41.310Z,180
2018-07-09T05:38:50.449Z,175
2018-07-09T05:39:59.520Z,180
2018-07-09T05:41:08.322Z,180
2018-07-09T05:42:17.459Z,210
2018-07-09T05:43:26.319Z,235
2018-07-09T05:44:35.181Z,250
2018-07-09T05:45:44.048Z,265
2018-07-09T05:46:53.249Z,265
2018-07-09T05:48:02.334Z,260
2018-07-09T05:49:11.199Z,255
2018-07-09T05:50:20.059Z,245
2018-07-09T05:51:28.920Z,240
2018-07-09T05:52:38.057Z,235
2018-07-09T05:53:47.197Z,235
2018-07-09T05:54:56.054Z,235
2018-07-09T05:56:04.918Z,235
2018-07-09T05:57:13.930Z,250
2018-07-09T05:58:23.070Z,245
2018-07-09T05:59:31.939Z,235
2018-07-09T06:00:40.797Z,220
2018-07-09T06:01:49.659Z,220
2018-07-09T06:02:58.624Z,220
2018-07-09T06:04:08.098Z,205
2018-07-09T06:05:17.530Z,220
2018-07-09T06:06:26.388Z,245
2018-07-09T06:07:35.250Z,265
2018-07-09T06:08:44.115Z,290
2018-07-09T06:09:53.253Z,285
2018-07-09T06:11:02.155Z,270
2018-07-09T06:12:11.267Z,245
2018-07-09T06:13:20.130Z,250
2018-07-09T06:14:29.340Z,240
2018-07-09T06:15:38.203Z,225
2018-07-09T06:16:47.338Z,225
2018-07-09T06:17:56.530Z,220
2018-07-09T06:19:05.392Z,240
2018-07-09T06:20:14.254Z,215
2018-07-09T06:21:23.115Z,195
2018-07-09T06:22:32.257Z,195
2018-07-09T06:23:41.400Z,185
2018-07-09T06:24:50.539Z,205
2018-07-09T06:25:59.403Z,230
2018-07-09T06:27:08.543Z,235
2018-07-09T06:28:17.405Z,240
2018-07-09T06:29:26.267Z,255
2018-07-09T06:30:35.278Z,235
2018-07-09T06:31:44.426Z,225
2018-07-09T06:32:53.290Z,220
2018-07-09T06:34:02.151Z,200
2018-07-09T06:35:11.015Z,215
2018-07-09T06:36:20.257Z,205
2018-07-09T06:37:29.666Z,190
2018-07-09T06:38:38.803Z,180
2018-07-09T06:39:47.667Z,180
2018-07-09T06:40:56.528Z,200
2018-07-09T06:42:06.018Z,185
2018-07-09T06:43:15.166Z,185
2018-07-09T06:44:24.030Z,190
2018-07-09T06:45:32.890Z,195
2018-07-09T06:46:41.755Z,190
2018-07-09T06:47:51.323Z,185
2018-07-09T06:49:00.188Z,185
2018-07-09T06:50:09.092Z,190
2018-07-09T06:51:18.584Z,170
2018-07-09T06:52:27.444Z,165
2018-07-09T06:53:36.305Z,165
2018-07-09T06:54:45.168Z,150
2018-07-09T06:55:54.345Z,180
2018-07-09T06:57:03.554Z,190
2018-07-09T06:58:12.698Z,200
2018-07-09T06:59:21.558Z,220
2018-07-09T07:00:30.699Z,220
2018-07-09T07:01:39.562Z,275
2018-07-09T07:02:48.423Z,310
2018-07-09T07:03:57.288Z,340
2018-07-09T07:05:06.532Z,365
2018-07-09T07:06:15.680Z,375
2018-07-09T07:07:24.822Z,355
2018-07-09T07:08:33.685Z,390
2018-07-09T07:09:42.546Z,305
2018-07-09T07:10:51.559Z,350
2018-07-09T07:12:00.701Z,325
2018-07-09T07:13:09.563Z,340
2018-07-09T07:14:18.438Z,395
2018-07-09T07:15:27.287Z,465
2018-07-09T07:16:36.150Z,495
2018-07-09T07:17:45.291Z,520
2018-07-09T07:18:54.155Z,505
2018-07-09T07:20:03.296Z,480
2018-07-09T07:21:12.616Z,390
2018-07-09T07:22:21.627Z,330
2018-07-09T07:23:30.495Z,450
2018-07-09T07:24:39.353Z,555
2018-07-09T07:25:48.495Z,585
2018-07-09T07:26:57.642Z,600
2018-07-09T07:28:06.780Z,610
2018-07-09T07:29:15.649Z,665
2018-07-09T07:30:24.512Z,665
2018-07-09T07:31:33.930Z,640
2018-07-09T07:32:43.157Z,615
2018-07-09T07:33:52.378Z,530
2018-07-09T07:35:01.245Z,590
2018-07-09T07:36:10.385Z,680
2018-07-09T07:37:19.251Z,620
2018-07-09T07:38:28.123Z,595
2018-07-09T07:39:37.443Z,595
2018-07-09T07:40:46.309Z,610
2018-07-09T07:41:55.176Z,585
2018-07-09T07:43:04.040Z,545
2018-07-09T07:44:12.901Z,485
2018-07-09T07:45:21.768Z,375
2018-07-09T07:46:30.913Z,315
2018-07-09T07:47:40.060Z,350
2018-07-09T07:48:49.199Z,395
2018-07-09T07:49:58.065Z,450
2018-07-09T07:51:06.926Z,460
2018-07-09T07:52:15.808Z,515
2018-07-09T07:53:24.656Z,520
2018-07-09T07:54:33.804Z,515
2018-07-09T07:55:42.704Z,460
2018-07-09T07:56:51.682Z,470
2018-07-09T07:58:00.548Z,500
2018-07-09T07:59:09.412Z,545
2018-07-09T08:00:18.278Z,435
2018-07-09T08:01:27.428Z,550
2018-07-09T08:02:36.721Z,470
2018-07-09T08:03:45.583Z,530
2018-07-09T08:04:54.449Z,515
2018-07-09T08:06:03.313Z,425
2018-07-09T08:07:12.452Z,455
2018-07-09T08:08:21.666Z,245
2018-07-09T08:09:31.559Z,270
2018-07-09T08:10:41.034Z,340
2018-07-09T08:12:59.660Z,560
2018-07-09T08:14:11.150Z,695
2018-07-09T08:15:20.015Z,685
2018-07-09T08:16:29.152Z,605
2018-07-09T08:17:38.034Z,520
2018-07-09T08:18:46.877Z,615
2018-07-09T08:19:55.855Z,610
2018-07-09T08:21:04.708Z,555
2018-07-09T08:22:13.862Z,650
2018-07-09T08:23:23.016Z,570
2018-07-09T08:24:32.420Z,460
2018-07-09T08:25:42.505Z,370
2018-07-09T08:26:51.287Z,340
2018-07-09T08:28:00.151Z,285
2018-07-09T08:29:09.015Z,215
2018-07-09T08:30:17.878Z,150
2018-07-09T08:31:28.094Z,95
2018-07-09T08:32:36.815Z,110
2018-07-09T08:33:45.677Z,195
2018-07-09T08:34:54.544Z,320
2018-07-09T08:36:03.413Z,405
2018-07-09T08:37:12.276Z,335
2018-07-09T08:38:21.143Z,420
2018-07-09T08:39:30.016Z,410
2018-07-09T08:40:38.873Z,265
2018-07-09T08:41:47.737Z,200
2018-07-09T08:42:56.751Z,165
2018-07-09T08:44:05.905Z,180
2018-07-09T08:45:15.047Z,200
2018-07-09T08:46:23.911Z,250
2018-07-09T08:47:33.533Z,265
2018-07-09T08:48:42.687Z,320
2018-07-09T08:49:51.554Z,345
2018-07-09T08:51:00.692Z,335
2018-07-09T08:52:09.556Z,225
2018-07-09T08:53:18.419Z,145
2018-07-09T08:54:27.739Z,150
2018-07-09T08:55:36.881Z,170
2018-07-09T08:56:45.742Z,165
2018-07-09T08:57:54.605Z,180
2018-07-09T08:59:03.494Z,180
2018-07-09T09:00:12.385Z,175
2018-07-09T09:01:21.248Z,260
2018-07-09T09:02:30.111Z,265
2018-07-09T09:03:39.258Z,235
2018-07-09T09:04:48.119Z,285
2018-07-09T09:05:57.331Z,360
2018-07-09T09:07:06.200Z,235
2018-07-09T09:08:15.061Z,255
2018-07-09T09:09:23.926Z,350
2018-07-09T09:10:33.883Z,340
2018-07-09T09:11:42.748Z,300
2018-07-09T09:12:51.612Z,205
2018-07-09T09:14:00.473Z,210
2018-07-09T09:15:09.336Z,290
2018-07-09T09:16:18.202Z,545
2018-07-09T09:17:27.415Z,665
2018-07-09T09:18:36.560Z,675
2018-07-09T09:19:45.428Z,685
2018-07-09T09:20:54.291Z,765
2018-07-09T09:22:03.443Z,690
2018-07-09T09:23:12.455Z,580
2018-07-09T09:24:21.318Z,440
2018-07-09T09:25:30.203Z,520
2018-07-09T09:26:39.047Z,420
2018-07-09T09:27:47.911Z,330
2018-07-09T09:28:56.776Z,300
2018-07-09T09:30:05.641Z,280
2018-07-09T09:31:14.925Z,290
2018-07-09T09:32:23.750Z,230
2018-07-09T09:33:32.613Z,210
2018-07-09T09:34:41.633Z,170
2018-07-09T09:35:50.493Z,170
2018-07-09T09:36:59.363Z,200
2018-07-09T09:38:08.527Z,215
2018-07-09T09:39:17.669Z,325
2018-07-09T09:40:26.533Z,520
2018-07-09T09:41:35.395Z,495
2018-07-09T09:42:44.536Z,475
2018-07-09T09:43:53.400Z,610
2018-07-09T09:45:02.267Z,575
2018-07-09T09:46:11.285Z,415
2018-07-09T09:47:20.145Z,440
2018-07-09T09:48:29.281Z,445
2018-07-09T09:49:38.425Z,440
2018-07-09T09:50:47.295Z,300
2018-07-09T09:51:56.435Z,390
2018-07-09T09:53:05.302Z,625
2018-07-09T09:54:15.001Z,520
2018-07-09T09:55:23.864Z,540
2018-07-09T09:56:32.728Z,435
2018-07-09T09:57:41.974Z,325
2018-07-09T09:58:50.839Z,295
2018-07-09T09:59:59.708Z,320
2018-07-09T10:01:09.136Z,425
2018-07-09T10:02:18.000Z,560
2018-07-09T10:03:26.866Z,650
2018-07-09T10:04:35.733Z,560
2018-07-09T10:05:44.875Z,610
2018-07-09T10:06:54.308Z,685
2018-07-09T10:08:03.168Z,670
2018-07-09T10:09:12.459Z,655
2018-07-09T10:10:21.327Z,700
2018-07-09T10:11:30.199Z,530
2018-07-09T10:12:39.064Z,570
2018-07-09T10:13:47.930Z,520
2018-07-09T10:14:56.794Z,375
2018-07-09T10:16:05.659Z,565
2018-07-09T10:17:14.523Z,575
2018-07-09T10:18:23.389Z,475
2018-07-09T10:19:32.528Z,560
2018-07-09T10:20:41.749Z,730
2018-07-09T10:21:50.892Z,710
2018-07-09T10:23:00.426Z,765
2018-07-09T10:24:09.162Z,810
2018-07-09T10:25:18.030Z,750
2018-07-09T10:26:27.171Z,670
2018-07-09T10:27:36.036Z,655
2018-07-09T10:28:44.901Z,615
2018-07-09T10:29:54.041Z,630
2018-07-09T10:31:02.912Z,690
2018-07-09T10:32:12.127Z,650
2018-07-09T10:33:20.991Z,685
2018-07-09T10:34:29.859Z,640
2018-07-09T10:35:38.724Z,560
2018-07-09T10:36:47.595Z,565
2018-07-09T10:37:56.461Z,585
2018-07-09T10:39:05.328Z,725
2018-07-09T10:40:14.198Z,895
2018-07-09T10:41:23.065Z,985
2018-07-09T10:42:31.934Z,1035
2018-07-09T10:43:40.947Z,1100
2018-07-09T10:44:50.379Z,1010
2018-07-09T10:45:59.244Z,975
2018-07-09T10:47:08.432Z,1010
2018-07-09T10:48:18.116Z,975
2018-07-09T10:49:27.416Z,855
2018-07-09T10:50:36.282Z,885
2018-07-09T10:51:45.148Z,885
2018-07-09T10:52:54.018Z,900
2018-07-09T10:54:02.886Z,835
2018-07-09T10:55:11.800Z,730
2018-07-09T10:56:20.620Z,680
2018-07-09T10:57:29.487Z,690
2018-07-09T10:58:38.628Z,755
2018-07-09T10:59:47.493Z,710
2018-07-09T11:00:56.806Z,740
2018-07-09T11:02:05.672Z,750
2018-07-09T11:03:14.540Z,700
2018-07-09T11:04:23.407Z,690
2018-07-09T11:05:32.272Z,730
2018-07-09T11:06:41.289Z,700
2018-07-09T11:07:50.157Z,720
2018-07-09T11:08:59.025Z,675
2018-07-09T11:10:07.892Z,770
2018-07-09T11:11:16.763Z,885
2018-07-09T11:12:25.779Z,840
2018-07-09T11:13:34.644Z,880
2018-07-09T11:14:43.517Z,840
2018-07-09T11:15:52.371Z,780
2018-07-09T11:17:01.515Z,675
2018-07-09T11:18:10.484Z,665
2018-07-09T11:19:19.349Z,615
2018-07-09T11:20:28.214Z,750
2018-07-09T11:21:37.103Z,845
2018-07-09T11:22:46.262Z,825
2018-07-09T11:23:55.232Z,755
2018-07-09T11:25:04.653Z,660
2018-07-09T11:26:13.516Z,660
2018-07-09T11:27:22.661Z,705
2018-07-09T11:28:31.527Z,815
2018-07-09T11:29:40.495Z,895
2018-07-09T11:30:49.640Z,1055
2018-07-09T11:31:58.504Z,1005
2018-07-09T11:33:07.374Z,1020
2018-07-09T11:34:16.513Z,1025
2018-07-09T11:35:25.378Z,1005
2018-07-09T11:36:34.247Z,980
2018-07-09T11:37:43.113Z,855
2018-07-09T11:38:52.256Z,845
2018-07-09T11:40:01.402Z,875
2018-07-09T11:41:10.544Z,790
2018-07-09T11:42:19.797Z,725
2018-07-09T11:43:28.664Z,810
2018-07-09T11:44:37.542Z,860
2018-07-09T11:45:46.396Z,865
2018-07-09T11:46:55.411Z,760
2018-07-09T11:48:04.278Z,950
2018-07-09T11:49:13.150Z,1090
2018-07-09T11:50:22.017Z,1060
2018-07-09T11:51:31.159Z,1120
2018-07-09T11:52:40.304Z,1135
2018-07-09T11:53:49.171Z,955
2018-07-09T11:54:58.037Z,990
2018-07-09T11:56:06.899Z,1045
2018-07-09T11:57:16.050Z,955
2018-07-09T11:58:24.916Z,1135
2018-07-09T11:59:33.784Z,1135
2018-07-09T12:00:42.653Z,1080
2018-07-09T12:01:51.560Z,1145
2018-07-09T12:03:00.389Z,880
2018-07-09T12:04:09.363Z,950
2018-07-09T12:05:18.785Z,685
2018-07-09T12:06:27.654Z,690
2018-07-09T12:07:36.563Z,1050
2018-07-09T12:08:45.388Z,1045
2018-07-09T12:09:54.254Z,1330
2018-07-09T12:11:03.121Z,1990
2018-07-09T12:12:11.990Z,1175
2018-07-09T12:13:20.855Z,1125
2018-07-09T12:14:29.723Z,1370
2018-07-09T12:15:38.592Z,1960
2018-07-09T12:16:47.460Z,1150
2018-07-09T12:17:56.327Z,1045
2018-07-09T12:19:05.194Z,1175
2018-07-09T12:20:14.061Z,1865
2018-07-09T12:21:23.638Z,1795
2018-07-09T12:22:32.505Z,1985
2018-07-09T12:23:41.372Z,2305
2018-07-09T12:24:50.239Z,730
2018-07-09T12:25:59.107Z,695
2018-07-09T14:27:00.039Z,260
2018-07-09T14:28:09.274Z,285
2018-07-09T14:29:18.174Z,280
2018-07-09T14:30:27.101Z,360
2018-07-09T14:31:36.026Z,350
2018-07-09T14:32:45.104Z,290
2018-07-09T14:33:54.310Z,255
2018-07-09T14:35:03.245Z,270
2018-07-09T14:36:12.459Z,295
2018-07-09T14:37:21.676Z,265
2018-07-09T14:38:30.652Z,295
2018-07-09T14:39:39.576Z,335
2018-07-09T14:40:48.502Z,255
2018-07-09T14:41:57.429Z,300
2018-07-09T14:43:06.355Z,245
2018-07-09T14:44:15.431Z,230
2018-07-09T14:45:24.869Z,230
2018-07-09T14:46:33.795Z,225
2018-07-09T14:47:42.730Z,195
2018-07-09T14:48:52.223Z,175
2018-07-09T14:50:01.147Z,165
2018-07-09T14:51:10.073Z,145
2018-07-09T14:52:19.003Z,140
2018-07-09T14:53:27.930Z,155
2018-07-09T14:54:37.192Z,150
2018-07-09T14:55:46.116Z,150
2018-07-09T14:56:55.042Z,140
2018-07-09T14:58:04.263Z,160
2018-07-09T14:59:13.188Z,195
2018-07-09T15:00:22.111Z,165
2018-07-09T15:01:31.090Z,180
2018-07-09T15:02:40.016Z,150
2018-07-09T15:03:49.222Z,150
2018-07-09T15:04:58.146Z,155
2018-07-09T15:06:07.070Z,160
2018-07-09T15:07:16.097Z,170
2018-07-09T15:08:25.020Z,190
2018-07-09T15:09:33.965Z,210
2018-07-09T15:10:43.174Z,225
2018-07-09T15:11:52.381Z,270
2018-07-09T15:13:01.356Z,315
2018-07-09T15:14:10.279Z,360
2018-07-09T15:15:19.206Z,420
2018-07-09T15:16:28.412Z,490
2018-07-09T15:17:37.963Z,475
2018-07-09T15:18:47.038Z,360
2018-07-09T15:19:55.960Z,265
2018-07-09T15:21:04.915Z,290
2018-07-09T15:22:14.172Z,390
2018-07-09T15:23:23.379Z,400
2018-07-09T15:24:32.303Z,385
2018-07-09T15:25:41.229Z,305
2018-07-09T15:26:50.152Z,265
2018-07-09T15:27:59.077Z,265
2018-07-09T15:29:08.003Z,305
2018-07-09T15:30:17.279Z,320
2018-07-09T15:31:26.202Z,290
2018-07-09T15:32:35.125Z,310
2018-07-09T15:33:44.049Z,340
2018-07-09T15:34:53.253Z,335
2018-07-09T15:36:02.566Z,355
2018-07-09T22:25:15.429Z,0
2018-07-09T22:26:24.566Z,0
2018-07-09T22:27:33.715Z,0
2018-07-09T22:28:42.574Z,0
2018-07-09T22:29:51.434Z,0
2018-07-09T22:31:00.722Z,0
2018-07-09T22:32:09.581Z,0
2018-07-09T22:33:18.439Z,0
2018-07-09T22:34:27.298Z,0
2018-07-09T22:35:36.434Z,0
2018-07-09T22:36:46.002Z,0
2018-07-09T22:37:54.860Z,0
2018-07-09T22:39:03.720Z,0
2018-07-09T22:40:13.129Z,0
2018-07-09T22:41:21.858Z,0
2018-07-09T22:42:30.715Z,0
2018-07-09T22:43:39.857Z,0
2018-07-09T22:44:49.297Z,0
2018-07-09T22:45:58.157Z,0
2018-07-09T22:47:07.026Z,0
2018-07-09T22:48:15.978Z,0
2018-07-09T22:49:25.118Z,0
2018-07-09T22:50:33.978Z,0
2018-07-09T22:51:42.837Z,0
2018-07-09T22:52:51.696Z,0
2018-07-09T22:54:00.556Z,0
2018-07-09T22:55:09.413Z,0
2018-07-09T22:56:18.275Z,0
2018-07-09T22:57:27.134Z,0
2018-07-09T22:58:35.991Z,0
2018-07-09T22:59:44.848Z,0
2018-07-09T23:00:53.984Z,0
2018-07-09T23:02:03.124Z,0
2018-07-09T23:03:11.982Z,0
2018-07-09T23:04:20.845Z,0
2018-07-09T23:05:30.071Z,0
2018-07-09T23:06:39.203Z,0
2018-07-09T23:07:48.061Z,0
2018-07-09T23:08:56.918Z,0
2018-07-09T23:10:05.777Z,0
2018-07-09T23:11:14.988Z,0
2018-07-09T23:12:23.847Z,0
2018-07-09T23:13:32.708Z,0
2018-07-09T23:14:41.568Z,0
2018-07-09T23:15:50.428Z,0
2018-07-09T23:16:59.636Z,0
2018-07-09T23:18:08.770Z,0
2018-07-09T23:19:17.631Z,0
2018-07-09T23:20:26.492Z,0
2018-07-09T23:21:35.352Z,0
2018-07-09T23:22:44.640Z,0
2018-07-09T23:23:54.061Z,0
2018-07-09T23:25:03.194Z,0
2018-07-09T23:26:12.054Z,0
2018-07-09T23:27:20.916Z,0
2018-07-09T23:28:30.049Z,0
2018-07-09T23:29:38.907Z,0
2018-07-09T23:30:47.773Z,0
2018-07-09T23:31:56.923Z,0
2018-07-09T23:33:06.057Z,0
2018-07-09T23:34:15.066Z,0
2018-07-09T23:35:24.483Z,0
2018-07-09T23:36:33.341Z,0
2018-07-09T23:37:42.477Z,0
2018-07-09T23:38:51.337Z,0
2018-07-09T23:40:00.548Z,0
2018-07-09T23:41:09.406Z,0
2018-07-09T23:42:18.602Z,0
2018-07-09T23:43:27.739Z,0
2018-07-09T23:44:36.600Z,0
2018-07-09T23:45:46.169Z,0
2018-07-09T23:46:55.301Z,0
2018-07-09T23:48:04.161Z,0
2018-07-09T23:49:13.018Z,0
2018-07-09T23:50:22.165Z,0
2018-07-09T23:51:31.178Z,0
2018-07-09T23:52:40.039Z,0
2018-07-09T23:53:49.174Z,0
2018-07-09T23:54:58.049Z,0
2018-07-09T23:56:06.911Z,0
2018-07-09T23:57:15.919Z,0
2018-07-09T23:58:25.118Z,0
2018-07-09T23:59:34.241Z,0
